sensor_id;sensor_type;location;lat;lon;timestamp;P1;durP1;ratioP1;P2;durP2;ratioP2
72319;SDS011;60269;52.502;16.732;2023-09-08T00:03:04;12.65;;;7.28;;
72319;SDS011;60269;52.502;16.732;2023-09-08T00:06:37;14.32;;;7.55;;
72319;SDS011;60269;52.502;16.732;2023-09-08T00:10:09;13.80;;;7.80;;
72319;SDS011;60269;52.502;16.732;2023-09-08T00:13:42;13.10;;;7.47;;
72319;SDS011;60269;52.502;16.732;2023-09-08T00:17:15;17.83;;;9.02;;
72319;SDS011;60269;52.502;16.732;2023-09-08T00:20:46;15.93;;;8.07;;
72319;SDS011;60269;52.502;16.732;2023-09-08T00:24:18;16.13;;;8.83;;
72319;SDS011;60269;52.502;16.732;2023-09-08T00:27:51;17.17;;;8.17;;
72319;SDS011;60269;52.502;16.732;2023-09-08T00:31:23;14.80;;;8.32;;
72319;SDS011;60269;52.502;16.732;2023-09-08T00:34:55;16.33;;;7.90;;
72319;SDS011;60269;52.502;16.732;2023-09-08T00:38:27;15.83;;;8.27;;
72319;SDS011;60269;52.502;16.732;2023-09-08T00:41:59;15.53;;;8.77;;
72319;SDS011;60269;52.502;16.732;2023-09-08T00:45:31;17.73;;;8.82;;
72319;SDS011;60269;52.502;16.732;2023-09-08T00:49:09;15.43;;;8.32;;
72319;SDS011;60269;52.502;16.732;2023-09-08T00:52:41;16.53;;;8.90;;
72319;SDS011;60269;52.502;16.732;2023-09-08T00:56:13;15.43;;;8.27;;
72319;SDS011;60269;52.502;16.732;2023-09-08T00:59:45;16.88;;;8.80;;
72319;SDS011;60269;52.502;16.732;2023-09-08T01:03:17;16.33;;;9.10;;
72319;SDS011;60269;52.502;16.732;2023-09-08T01:06:50;17.47;;;8.77;;
72319;SDS011;60269;52.502;16.732;2023-09-08T01:10:23;15.47;;;8.87;;
72319;SDS011;60269;52.502;16.732;2023-09-08T01:13:55;15.25;;;9.40;;
72319;SDS011;60269;52.502;16.732;2023-09-08T01:17:27;13.88;;;7.88;;
72319;SDS011;60269;52.502;16.732;2023-09-08T01:28:10;17.00;;;9.23;;
72319;SDS011;60269;52.502;16.732;2023-09-08T01:31:43;16.52;;;8.65;;
72319;SDS011;60269;52.502;16.732;2023-09-08T01:35:16;16.23;;;8.90;;
72319;SDS011;60269;52.502;16.732;2023-09-08T01:38:48;15.20;;;8.80;;
72319;SDS011;60269;52.502;16.732;2023-09-08T01:42:20;17.80;;;9.15;;
72319;SDS011;60269;52.502;16.732;2023-09-08T01:45:52;16.90;;;8.43;;
72319;SDS011;60269;52.502;16.732;2023-09-08T01:49:25;15.93;;;9.03;;
72319;SDS011;60269;52.502;16.732;2023-09-08T01:52:56;20.50;;;9.07;;
72319;SDS011;60269;52.502;16.732;2023-09-08T01:56:29;15.75;;;9.45;;
72319;SDS011;60269;52.502;16.732;2023-09-08T02:00:01;19.35;;;9.80;;
72319;SDS011;60269;52.502;16.732;2023-09-08T02:03:33;16.77;;;9.57;;
72319;SDS011;60269;52.502;16.732;2023-09-08T02:07:05;17.33;;;8.80;;
72319;SDS011;60269;52.502;16.732;2023-09-08T02:10:39;17.02;;;10.85;;
72319;SDS011;60269;52.502;16.732;2023-09-08T02:14:12;21.80;;;10.18;;
72319;SDS011;60269;52.502;16.732;2023-09-08T02:17:45;19.37;;;10.33;;
72319;SDS011;60269;52.502;16.732;2023-09-08T02:21:17;17.45;;;10.70;;
72319;SDS011;60269;52.502;16.732;2023-09-08T02:24:49;18.00;;;11.20;;
72319;SDS011;60269;52.502;16.732;2023-09-08T02:28:23;20.27;;;10.45;;
72319;SDS011;60269;52.502;16.732;2023-09-08T02:31:55;20.60;;;10.53;;
72319;SDS011;60269;52.502;16.732;2023-09-08T02:35:27;18.27;;;10.50;;
72319;SDS011;60269;52.502;16.732;2023-09-08T02:38:59;17.83;;;10.40;;
72319;SDS011;60269;52.502;16.732;2023-09-08T02:42:31;19.17;;;11.17;;
72319;SDS011;60269;52.502;16.732;2023-09-08T02:46:04;17.60;;;10.50;;
72319;SDS011;60269;52.502;16.732;2023-09-08T02:49:36;18.58;;;11.57;;
72319;SDS011;60269;52.502;16.732;2023-09-08T02:53:09;18.88;;;11.50;;
72319;SDS011;60269;52.502;16.732;2023-09-08T02:56:41;20.33;;;10.73;;
72319;SDS011;60269;52.502;16.732;2023-09-08T03:00:14;19.52;;;11.48;;
72319;SDS011;60269;52.502;16.732;2023-09-08T03:03:46;19.25;;;11.32;;
72319;SDS011;60269;52.502;16.732;2023-09-08T03:07:20;18.00;;;11.77;;
72319;SDS011;60269;52.502;16.732;2023-09-08T03:10:54;19.20;;;11.73;;
72319;SDS011;60269;52.502;16.732;2023-09-08T03:14:28;17.92;;;11.18;;
72319;SDS011;60269;52.502;16.732;2023-09-08T03:18:00;22.20;;;11.45;;
72319;SDS011;60269;52.502;16.732;2023-09-08T03:21:32;18.53;;;11.90;;
72319;SDS011;60269;52.502;16.732;2023-09-08T03:25:04;19.13;;;11.80;;
72319;SDS011;60269;52.502;16.732;2023-09-08T03:28:37;22.98;;;11.80;;
72319;SDS011;60269;52.502;16.732;2023-09-08T03:32:10;24.00;;;13.65;;
72319;SDS011;60269;52.502;16.732;2023-09-08T03:35:43;23.33;;;11.97;;
72319;SDS011;60269;52.502;16.732;2023-09-08T03:39:15;25.30;;;13.47;;
72319;SDS011;60269;52.502;16.732;2023-09-08T03:42:48;21.77;;;12.27;;
72319;SDS011;60269;52.502;16.732;2023-09-08T03:46:20;22.40;;;12.90;;
72319;SDS011;60269;52.502;16.732;2023-09-08T03:49:52;21.60;;;12.60;;
72319;SDS011;60269;52.502;16.732;2023-09-08T03:53:25;21.67;;;12.60;;
72319;SDS011;60269;52.502;16.732;2023-09-08T03:56:57;21.70;;;12.55;;
72319;SDS011;60269;52.502;16.732;2023-09-08T04:00:29;20.83;;;12.50;;
72319;SDS011;60269;52.502;16.732;2023-09-08T04:04:03;24.97;;;12.07;;
72319;SDS011;60269;52.502;16.732;2023-09-08T04:07:35;22.77;;;12.63;;
72319;SDS011;60269;52.502;16.732;2023-09-08T04:11:07;24.85;;;12.80;;
72319;SDS011;60269;52.502;16.732;2023-09-08T04:14:39;21.52;;;13.40;;
72319;SDS011;60269;52.502;16.732;2023-09-08T04:18:11;23.63;;;13.07;;
72319;SDS011;60269;52.502;16.732;2023-09-08T04:21:43;22.60;;;12.50;;
72319;SDS011;60269;52.502;16.732;2023-09-08T04:25:15;22.77;;;13.38;;
72319;SDS011;60269;52.502;16.732;2023-09-08T04:28:47;21.17;;;12.55;;
72319;SDS011;60269;52.502;16.732;2023-09-08T04:32:19;24.73;;;14.40;;
72319;SDS011;60269;52.502;16.732;2023-09-08T04:35:51;20.43;;;12.77;;
72319;SDS011;60269;52.502;16.732;2023-09-08T04:39:23;23.58;;;13.95;;
72319;SDS011;60269;52.502;16.732;2023-09-08T04:42:57;23.15;;;12.60;;
72319;SDS011;60269;52.502;16.732;2023-09-08T04:46:29;22.67;;;13.93;;
72319;SDS011;60269;52.502;16.732;2023-09-08T04:50:01;23.70;;;13.32;;
72319;SDS011;60269;52.502;16.732;2023-09-08T04:53:34;20.55;;;13.55;;
72319;SDS011;60269;52.502;16.732;2023-09-08T04:57:08;23.85;;;13.32;;
72319;SDS011;60269;52.502;16.732;2023-09-08T05:00:54;22.03;;;13.47;;
72319;SDS011;60269;52.502;16.732;2023-09-08T05:04:27;25.60;;;12.98;;
72319;SDS011;60269;52.502;16.732;2023-09-08T05:07:59;22.02;;;12.35;;
72319;SDS011;60269;52.502;16.732;2023-09-08T05:11:31;18.90;;;11.57;;
72319;SDS011;60269;52.502;16.732;2023-09-08T05:15:04;22.10;;;11.93;;
72319;SDS011;60269;52.502;16.732;2023-09-08T05:18:42;20.90;;;12.98;;
72319;SDS011;60269;52.502;16.732;2023-09-08T05:22:14;21.83;;;13.10;;
72319;SDS011;60269;52.502;16.732;2023-09-08T05:25:46;22.67;;;13.17;;
72319;SDS011;60269;52.502;16.732;2023-09-08T05:29:18;19.00;;;12.87;;
72319;SDS011;60269;52.502;16.732;2023-09-08T05:32:50;21.67;;;13.07;;
72319;SDS011;60269;52.502;16.732;2023-09-08T05:36:22;24.15;;;13.00;;
72319;SDS011;60269;52.502;16.732;2023-09-08T05:39:54;19.57;;;12.30;;
72319;SDS011;60269;52.502;16.732;2023-09-08T05:43:26;17.53;;;11.97;;
72319;SDS011;60269;52.502;16.732;2023-09-08T05:46:58;18.95;;;11.48;;
72319;SDS011;60269;52.502;16.732;2023-09-08T05:50:30;17.73;;;11.20;;
72319;SDS011;60269;52.502;16.732;2023-09-08T05:54:02;19.23;;;11.10;;
72319;SDS011;60269;52.502;16.732;2023-09-08T05:57:35;17.27;;;11.10;;
72319;SDS011;60269;52.502;16.732;2023-09-08T06:01:07;18.70;;;11.02;;
72319;SDS011;60269;52.502;16.732;2023-09-08T06:04:39;17.95;;;10.38;;
72319;SDS011;60269;52.502;16.732;2023-09-08T06:08:11;19.63;;;10.17;;
72319;SDS011;60269;52.502;16.732;2023-09-08T06:11:43;17.47;;;9.20;;
72319;SDS011;60269;52.502;16.732;2023-09-08T06:15:15;18.50;;;9.90;;
72319;SDS011;60269;52.502;16.732;2023-09-08T06:18:48;17.67;;;9.52;;
72319;SDS011;60269;52.502;16.732;2023-09-08T06:22:20;13.90;;;8.53;;
72319;SDS011;60269;52.502;16.732;2023-09-08T06:25:56;15.73;;;8.60;;
72319;SDS011;60269;52.502;16.732;2023-09-08T06:29:31;16.52;;;8.65;;
72319;SDS011;60269;52.502;16.732;2023-09-08T06:33:03;16.70;;;8.93;;
72319;SDS011;60269;52.502;16.732;2023-09-08T06:36:36;16.53;;;9.30;;
72319;SDS011;60269;52.502;16.732;2023-09-08T06:40:08;16.20;;;8.83;;
72319;SDS011;60269;52.502;16.732;2023-09-08T06:43:40;18.05;;;8.13;;
72319;SDS011;60269;52.502;16.732;2023-09-08T06:47:12;17.15;;;9.43;;
72319;SDS011;60269;52.502;16.732;2023-09-08T06:50:44;16.87;;;9.77;;
72319;SDS011;60269;52.502;16.732;2023-09-08T06:54:16;19.73;;;9.73;;
72319;SDS011;60269;52.502;16.732;2023-09-08T06:57:48;17.30;;;9.93;;
72319;SDS011;60269;52.502;16.732;2023-09-08T07:01:20;12.15;;;8.98;;
72319;SDS011;60269;52.502;16.732;2023-09-08T07:04:52;13.23;;;9.60;;
72319;SDS011;60269;52.502;16.732;2023-09-08T07:08:25;15.05;;;10.77;;
72319;SDS011;60269;52.502;16.732;2023-09-08T07:11:57;13.65;;;9.52;;
72319;SDS011;60269;52.502;16.732;2023-09-08T07:15:29;14.18;;;9.10;;
72319;SDS011;60269;52.502;16.732;2023-09-08T07:19:01;14.23;;;10.53;;
72319;SDS011;60269;52.502;16.732;2023-09-08T07:22:33;17.10;;;11.88;;
72319;SDS011;60269;52.502;16.732;2023-09-08T07:26:05;13.35;;;10.93;;
72319;SDS011;60269;52.502;16.732;2023-09-08T07:29:38;12.20;;;9.67;;
72319;SDS011;60269;52.502;16.732;2023-09-08T07:33:10;15.90;;;10.33;;
72319;SDS011;60269;52.502;16.732;2023-09-08T07:36:42;15.20;;;9.43;;
72319;SDS011;60269;52.502;16.732;2023-09-08T07:40:15;13.43;;;7.80;;
72319;SDS011;60269;52.502;16.732;2023-09-08T07:43:48;11.03;;;4.93;;
72319;SDS011;60269;52.502;16.732;2023-09-08T07:47:22;10.97;;;7.50;;
72319;SDS011;60269;52.502;16.732;2023-09-08T07:50:55;12.13;;;6.03;;
72319;SDS011;60269;52.502;16.732;2023-09-08T07:54:27;10.55;;;5.10;;
72319;SDS011;60269;52.502;16.732;2023-09-08T07:58:00;17.00;;;4.80;;
72319;SDS011;60269;52.502;16.732;2023-09-08T08:01:32;10.83;;;4.70;;
72319;SDS011;60269;52.502;16.732;2023-09-08T08:05:05;10.25;;;7.60;;
72319;SDS011;60269;52.502;16.732;2023-09-08T08:08:39;11.63;;;9.35;;
72319;SDS011;60269;52.502;16.732;2023-09-08T08:12:12;15.27;;;10.20;;
72319;SDS011;60269;52.502;16.732;2023-09-08T08:15:45;13.30;;;5.77;;
72319;SDS011;60269;52.502;16.732;2023-09-08T08:19:19;10.05;;;5.28;;
72319;SDS011;60269;52.502;16.732;2023-09-08T08:22:52;14.00;;;4.93;;
72319;SDS011;60269;52.502;16.732;2023-09-08T08:26:25;10.07;;;5.20;;
72319;SDS011;60269;52.502;16.732;2023-09-08T08:30:00;14.20;;;4.97;;
72319;SDS011;60269;52.502;16.732;2023-09-08T08:33:33;11.32;;;4.60;;
72319;SDS011;60269;52.502;16.732;2023-09-08T08:37:05;11.32;;;5.10;;
72319;SDS011;60269;52.502;16.732;2023-09-08T08:40:38;13.33;;;8.57;;
72319;SDS011;60269;52.502;16.732;2023-09-08T08:44:10;13.82;;;9.00;;
72319;SDS011;60269;52.502;16.732;2023-09-08T08:47:43;11.88;;;10.32;;
72319;SDS011;60269;52.502;16.732;2023-09-08T08:51:16;11.93;;;9.95;;
72319;SDS011;60269;52.502;16.732;2023-09-08T08:54:51;12.03;;;8.90;;
72319;SDS011;60269;52.502;16.732;2023-09-08T08:58:23;13.00;;;8.20;;
72319;SDS011;60269;52.502;16.732;2023-09-08T09:01:58;10.98;;;8.90;;
72319;SDS011;60269;52.502;16.732;2023-09-08T09:05:31;9.00;;;8.03;;
72319;SDS011;60269;52.502;16.732;2023-09-08T09:09:07;10.70;;;7.93;;
72319;SDS011;60269;52.502;16.732;2023-09-08T09:12:39;13.38;;;7.80;;
72319;SDS011;60269;52.502;16.732;2023-09-08T09:16:12;12.95;;;8.65;;
72319;SDS011;60269;52.502;16.732;2023-09-08T09:19:44;11.07;;;7.90;;
72319;SDS011;60269;52.502;16.732;2023-09-08T09:23:25;14.52;;;9.07;;
72319;SDS011;60269;52.502;16.732;2023-09-08T09:27:01;10.52;;;9.02;;
72319;SDS011;60269;52.502;16.732;2023-09-08T09:30:47;12.43;;;9.25;;
72319;SDS011;60269;52.502;16.732;2023-09-08T09:34:23;12.43;;;9.80;;
72319;SDS011;60269;52.502;16.732;2023-09-08T09:37:55;12.73;;;9.75;;
72319;SDS011;60269;52.502;16.732;2023-09-08T09:41:27;9.90;;;8.90;;
72319;SDS011;60269;52.502;16.732;2023-09-08T09:45:01;9.10;;;8.20;;
72319;SDS011;60269;52.502;16.732;2023-09-08T09:48:34;12.43;;;8.27;;
72319;SDS011;60269;52.502;16.732;2023-09-08T09:52:07;9.88;;;8.60;;
72319;SDS011;60269;52.502;16.732;2023-09-08T09:55:40;9.13;;;8.15;;
72319;SDS011;60269;52.502;16.732;2023-09-08T09:59:14;10.70;;;8.83;;
72319;SDS011;60269;52.502;16.732;2023-09-08T10:02:46;12.00;;;9.57;;
72319;SDS011;60269;52.502;16.732;2023-09-08T10:06:19;12.77;;;9.60;;
72319;SDS011;60269;52.502;16.732;2023-09-08T10:09:51;11.18;;;7.70;;
72319;SDS011;60269;52.502;16.732;2023-09-08T10:13:27;11.63;;;9.13;;
72319;SDS011;60269;52.502;16.732;2023-09-08T10:17:00;19.47;;;10.40;;
72319;SDS011;60269;52.502;16.732;2023-09-08T10:20:35;10.77;;;9.68;;
72319;SDS011;60269;52.502;16.732;2023-09-08T10:28:01;10.17;;;9.07;;
72319;SDS011;60269;52.502;16.732;2023-09-08T10:31:35;9.83;;;8.53;;
72319;SDS011;60269;52.502;16.732;2023-09-08T10:35:08;12.80;;;9.18;;
72319;SDS011;60269;52.502;16.732;2023-09-08T10:38:44;12.07;;;9.05;;
72319;SDS011;60269;52.502;16.732;2023-09-08T10:42:21;9.27;;;4.27;;
72319;SDS011;60269;52.502;16.732;2023-09-08T10:45:57;12.03;;;10.80;;
72319;SDS011;60269;52.502;16.732;2023-09-08T10:49:29;11.50;;;10.13;;
72319;SDS011;60269;52.502;16.732;2023-09-08T10:53:07;16.50;;;10.10;;
72319;SDS011;60269;52.502;16.732;2023-09-08T10:56:48;12.37;;;11.07;;
72319;SDS011;60269;52.502;16.732;2023-09-08T11:00:25;11.70;;;10.57;;
72319;SDS011;60269;52.502;16.732;2023-09-08T11:03:58;14.00;;;10.98;;
72319;SDS011;60269;52.502;16.732;2023-09-08T11:07:31;13.45;;;11.75;;
72319;SDS011;60269;52.502;16.732;2023-09-08T11:11:06;12.87;;;11.87;;
72319;SDS011;60269;52.502;16.732;2023-09-08T11:14:39;13.98;;;12.07;;
72319;SDS011;60269;52.502;16.732;2023-09-08T11:18:11;14.60;;;10.20;;
72319;SDS011;60269;52.502;16.732;2023-09-08T11:21:43;14.03;;;9.90;;
72319;SDS011;60269;52.502;16.732;2023-09-08T11:25:16;13.02;;;10.30;;
72319;SDS011;60269;52.502;16.732;2023-09-08T11:28:47;10.80;;;9.80;;
72319;SDS011;60269;52.502;16.732;2023-09-08T11:32:21;12.23;;;11.07;;
72319;SDS011;60269;52.502;16.732;2023-09-08T11:35:53;12.15;;;9.70;;
72319;SDS011;60269;52.502;16.732;2023-09-08T11:39:30;11.30;;;10.20;;
72319;SDS011;60269;52.502;16.732;2023-09-08T11:43:02;11.63;;;9.18;;
72319;SDS011;60269;52.502;16.732;2023-09-08T11:46:35;13.67;;;10.60;;
72319;SDS011;60269;52.502;16.732;2023-09-08T11:50:07;10.93;;;9.27;;
72319;SDS011;60269;52.502;16.732;2023-09-08T11:53:50;13.70;;;8.77;;
72319;SDS011;60269;52.502;16.732;2023-09-08T11:57:23;15.17;;;8.13;;
72319;SDS011;60269;52.502;16.732;2023-09-08T12:00:56;13.18;;;11.98;;
72319;SDS011;60269;52.502;16.732;2023-09-08T12:04:29;8.93;;;4.70;;
72319;SDS011;60269;52.502;16.732;2023-09-08T12:08:03;7.87;;;4.00;;
72319;SDS011;60269;52.502;16.732;2023-09-08T12:11:37;7.85;;;5.07;;
72319;SDS011;60269;52.502;16.732;2023-09-08T12:19:03;9.98;;;4.60;;
72319;SDS011;60269;52.502;16.732;2023-09-08T12:22:35;8.53;;;4.50;;
72319;SDS011;60269;52.502;16.732;2023-09-08T12:26:07;7.68;;;4.32;;
72319;SDS011;60269;52.502;16.732;2023-09-08T12:29:40;9.23;;;4.50;;
72319;SDS011;60269;52.502;16.732;2023-09-08T12:33:11;7.67;;;4.20;;
72319;SDS011;60269;52.502;16.732;2023-09-08T12:36:47;8.18;;;5.15;;
72319;SDS011;60269;52.502;16.732;2023-09-08T12:40:19;11.88;;;10.52;;
72319;SDS011;60269;52.502;16.732;2023-09-08T12:43:51;8.63;;;4.83;;
72319;SDS011;60269;52.502;16.732;2023-09-08T12:47:23;7.95;;;4.70;;
72319;SDS011;60269;52.502;16.732;2023-09-08T12:50:55;7.60;;;5.10;;
72319;SDS011;60269;52.502;16.732;2023-09-08T12:54:27;8.95;;;4.88;;
72319;SDS011;60269;52.502;16.732;2023-09-08T12:57:59;7.53;;;4.30;;
72319;SDS011;60269;52.502;16.732;2023-09-08T13:01:31;9.60;;;3.88;;
72319;SDS011;60269;52.502;16.732;2023-09-08T13:05:03;7.63;;;4.25;;
72319;SDS011;60269;52.502;16.732;2023-09-08T13:08:35;9.13;;;4.57;;
72319;SDS011;60269;52.502;16.732;2023-09-08T13:12:08;7.75;;;4.05;;
72319;SDS011;60269;52.502;16.732;2023-09-08T13:15:40;10.20;;;4.45;;
72319;SDS011;60269;52.502;16.732;2023-09-08T13:19:13;9.53;;;5.33;;
72319;SDS011;60269;52.502;16.732;2023-09-08T13:22:45;8.88;;;4.57;;
72319;SDS011;60269;52.502;16.732;2023-09-08T13:26:17;7.53;;;4.82;;
72319;SDS011;60269;52.502;16.732;2023-09-08T13:29:54;7.45;;;4.40;;
72319;SDS011;60269;52.502;16.732;2023-09-08T13:33:41;11.40;;;3.40;;
72319;SDS011;60269;52.502;16.732;2023-09-08T13:37:13;9.68;;;4.30;;
72319;SDS011;60269;52.502;16.732;2023-09-08T13:40:45;7.68;;;4.90;;
72319;SDS011;60269;52.502;16.732;2023-09-08T13:44:21;9.90;;;4.57;;
72319;SDS011;60269;52.502;16.732;2023-09-08T13:47:55;8.68;;;4.20;;
72319;SDS011;60269;52.502;16.732;2023-09-08T13:51:28;7.85;;;4.65;;
72319;SDS011;60269;52.502;16.732;2023-09-08T13:55:02;10.33;;;4.63;;
72319;SDS011;60269;52.502;16.732;2023-09-08T13:58:42;11.25;;;5.50;;
72319;SDS011;60269;52.502;16.732;2023-09-08T14:02:22;8.30;;;5.53;;
72319;SDS011;60269;52.502;16.732;2023-09-08T14:05:57;7.68;;;4.50;;
72319;SDS011;60269;52.502;16.732;2023-09-08T14:09:37;7.73;;;5.13;;
72319;SDS011;60269;52.502;16.732;2023-09-08T14:13:12;8.38;;;5.28;;
72319;SDS011;60269;52.502;16.732;2023-09-08T14:16:44;10.38;;;7.57;;
72319;SDS011;60269;52.502;16.732;2023-09-08T14:20:16;11.87;;;9.73;;
72319;SDS011;60269;52.502;16.732;2023-09-08T14:23:49;11.07;;;9.93;;
72319;SDS011;60269;52.502;16.732;2023-09-08T14:27:25;12.52;;;11.35;;
72319;SDS011;60269;52.502;16.732;2023-09-08T14:30:58;13.07;;;11.43;;
72319;SDS011;60269;52.502;16.732;2023-09-08T14:34:30;9.18;;;5.28;;
72319;SDS011;60269;52.502;16.732;2023-09-08T14:38:05;9.20;;;4.70;;
72319;SDS011;60269;52.502;16.732;2023-09-08T14:41:37;9.43;;;4.47;;
72319;SDS011;60269;52.502;16.732;2023-09-08T14:45:09;8.13;;;5.07;;
72319;SDS011;60269;52.502;16.732;2023-09-08T14:48:42;6.32;;;4.25;;
72319;SDS011;60269;52.502;16.732;2023-09-08T14:52:14;9.65;;;4.43;;
72319;SDS011;60269;52.502;16.732;2023-09-08T14:55:48;8.67;;;4.97;;
72319;SDS011;60269;52.502;16.732;2023-09-08T14:59:20;10.30;;;4.38;;
72319;SDS011;60269;52.502;16.732;2023-09-08T15:02:52;9.38;;;4.47;;
72319;SDS011;60269;52.502;16.732;2023-09-08T15:06:24;9.97;;;5.33;;
72319;SDS011;60269;52.502;16.732;2023-09-08T15:09:59;7.75;;;4.80;;
72319;SDS011;60269;52.502;16.732;2023-09-08T15:13:31;6.70;;;4.38;;
72319;SDS011;60269;52.502;16.732;2023-09-08T15:17:04;8.75;;;4.40;;
72319;SDS011;60269;52.502;16.732;2023-09-08T15:20:36;8.67;;;4.77;;
72319;SDS011;60269;52.502;16.732;2023-09-08T15:24:08;9.15;;;4.78;;
72319;SDS011;60269;52.502;16.732;2023-09-08T15:27:41;8.70;;;4.68;;
72319;SDS011;60269;52.502;16.732;2023-09-08T15:31:17;9.10;;;4.97;;
72319;SDS011;60269;52.502;16.732;2023-09-08T15:34:50;10.95;;;4.90;;
72319;SDS011;60269;52.502;16.732;2023-09-08T15:38:23;8.35;;;4.80;;
72319;SDS011;60269;52.502;16.732;2023-09-08T15:41:55;9.23;;;4.30;;
72319;SDS011;60269;52.502;16.732;2023-09-08T15:45:27;8.00;;;4.55;;
72319;SDS011;60269;52.502;16.732;2023-09-08T15:49:00;9.38;;;4.95;;
72319;SDS011;60269;52.502;16.732;2023-09-08T15:52:32;8.40;;;4.50;;
72319;SDS011;60269;52.502;16.732;2023-09-08T15:56:04;7.60;;;4.50;;
72319;SDS011;60269;52.502;16.732;2023-09-08T15:59:37;7.65;;;4.38;;
72319;SDS011;60269;52.502;16.732;2023-09-08T16:03:11;9.80;;;4.07;;
72319;SDS011;60269;52.502;16.732;2023-09-08T16:06:44;11.10;;;4.23;;
72319;SDS011;60269;52.502;16.732;2023-09-08T16:10:16;9.13;;;4.72;;
72319;SDS011;60269;52.502;16.732;2023-09-08T16:13:48;10.90;;;4.15;;
72319;SDS011;60269;52.502;16.732;2023-09-08T16:17:20;8.38;;;4.20;;
72319;SDS011;60269;52.502;16.732;2023-09-08T16:20:53;9.87;;;4.43;;
72319;SDS011;60269;52.502;16.732;2023-09-08T16:24:26;7.70;;;4.30;;
72319;SDS011;60269;52.502;16.732;2023-09-08T16:27:58;7.93;;;3.97;;
72319;SDS011;60269;52.502;16.732;2023-09-08T16:31:30;8.50;;;4.10;;
72319;SDS011;60269;52.502;16.732;2023-09-08T16:35:02;8.82;;;3.90;;
72319;SDS011;60269;52.502;16.732;2023-09-08T16:38:34;11.30;;;4.88;;
72319;SDS011;60269;52.502;16.732;2023-09-08T16:42:08;10.90;;;4.15;;
72319;SDS011;60269;52.502;16.732;2023-09-08T16:45:40;10.73;;;4.50;;
72319;SDS011;60269;52.502;16.732;2023-09-08T16:49:13;11.20;;;4.20;;
72319;SDS011;60269;52.502;16.732;2023-09-08T16:52:50;8.73;;;3.42;;
72319;SDS011;60269;52.502;16.732;2023-09-08T16:56:23;8.90;;;4.30;;
72319;SDS011;60269;52.502;16.732;2023-09-08T16:59:55;10.77;;;4.40;;
72319;SDS011;60269;52.502;16.732;2023-09-08T17:03:27;9.23;;;4.97;;
72319;SDS011;60269;52.502;16.732;2023-09-08T17:06:59;8.77;;;4.25;;
72319;SDS011;60269;52.502;16.732;2023-09-08T17:10:31;7.37;;;4.20;;
72319;SDS011;60269;52.502;16.732;2023-09-08T17:14:03;9.63;;;4.57;;
72319;SDS011;60269;52.502;16.732;2023-09-08T17:17:36;11.95;;;4.50;;
72319;SDS011;60269;52.502;16.732;2023-09-08T17:21:08;10.73;;;4.38;;
72319;SDS011;60269;52.502;16.732;2023-09-08T17:24:40;13.40;;;5.70;;
72319;SDS011;60269;52.502;16.732;2023-09-08T17:28:14;9.70;;;4.47;;
72319;SDS011;60269;52.502;16.732;2023-09-08T17:31:46;11.15;;;4.28;;
72319;SDS011;60269;52.502;16.732;2023-09-08T17:35:18;12.35;;;6.07;;
72319;SDS011;60269;52.502;16.732;2023-09-08T17:38:51;10.90;;;6.03;;
72319;SDS011;60269;52.502;16.732;2023-09-08T17:42:22;12.30;;;5.73;;
72319;SDS011;60269;52.502;16.732;2023-09-08T17:45:58;13.05;;;5.57;;
72319;SDS011;60269;52.502;16.732;2023-09-08T17:49:35;9.73;;;4.70;;
72319;SDS011;60269;52.502;16.732;2023-09-08T17:53:08;10.65;;;5.40;;
72319;SDS011;60269;52.502;16.732;2023-09-08T17:56:40;13.70;;;5.53;;
72319;SDS011;60269;52.502;16.732;2023-09-08T18:00:14;13.77;;;5.30;;
72319;SDS011;60269;52.502;16.732;2023-09-08T18:03:47;20.55;;;4.53;;
72319;SDS011;60269;52.502;16.732;2023-09-08T18:07:19;13.47;;;5.30;;
72319;SDS011;60269;52.502;16.732;2023-09-08T18:14:34;16.13;;;4.38;;
72319;SDS011;60269;52.502;16.732;2023-09-08T18:18:06;16.38;;;4.47;;
72319;SDS011;60269;52.502;16.732;2023-09-08T18:21:38;17.08;;;4.97;;
72319;SDS011;60269;52.502;16.732;2023-09-08T18:25:10;11.10;;;4.17;;
72319;SDS011;60269;52.502;16.732;2023-09-08T18:28:42;14.40;;;4.57;;
72319;SDS011;60269;52.502;16.732;2023-09-08T18:32:15;11.82;;;4.47;;
72319;SDS011;60269;52.502;16.732;2023-09-08T18:35:47;11.97;;;4.33;;
72319;SDS011;60269;52.502;16.732;2023-09-08T18:39:19;8.70;;;4.17;;
72319;SDS011;60269;52.502;16.732;2023-09-08T18:42:51;12.15;;;4.30;;
72319;SDS011;60269;52.502;16.732;2023-09-08T18:46:23;8.50;;;3.55;;
72319;SDS011;60269;52.502;16.732;2023-09-08T18:49:55;11.30;;;3.63;;
72319;SDS011;60269;52.502;16.732;2023-09-08T18:53:27;12.60;;;3.90;;
72319;SDS011;60269;52.502;16.732;2023-09-08T18:56:59;12.50;;;4.10;;
72319;SDS011;60269;52.502;16.732;2023-09-08T19:00:31;13.43;;;4.28;;
72319;SDS011;60269;52.502;16.732;2023-09-08T19:04:04;11.25;;;3.40;;
72319;SDS011;60269;52.502;16.732;2023-09-08T19:07:37;11.63;;;4.20;;
72319;SDS011;60269;52.502;16.732;2023-09-08T19:11:12;14.30;;;4.10;;
72319;SDS011;60269;52.502;16.732;2023-09-08T19:14:44;8.98;;;3.83;;
72319;SDS011;60269;52.502;16.732;2023-09-08T19:18:16;11.55;;;4.28;;
72319;SDS011;60269;52.502;16.732;2023-09-08T19:21:48;9.40;;;4.53;;
72319;SDS011;60269;52.502;16.732;2023-09-08T19:25:21;8.35;;;3.85;;
72319;SDS011;60269;52.502;16.732;2023-09-08T19:28:53;9.85;;;4.10;;
72319;SDS011;60269;52.502;16.732;2023-09-08T19:32:25;10.15;;;4.93;;
72319;SDS011;60269;52.502;16.732;2023-09-08T19:35:57;12.07;;;4.27;;
72319;SDS011;60269;52.502;16.732;2023-09-08T19:39:29;11.27;;;4.15;;
72319;SDS011;60269;52.502;16.732;2023-09-08T19:43:02;11.00;;;4.57;;
72319;SDS011;60269;52.502;16.732;2023-09-08T19:46:35;11.15;;;5.00;;
72319;SDS011;60269;52.502;16.732;2023-09-08T19:50:07;12.60;;;4.73;;
72319;SDS011;60269;52.502;16.732;2023-09-08T19:53:40;11.23;;;4.77;;
72319;SDS011;60269;52.502;16.732;2023-09-08T19:57:12;10.88;;;4.60;;
72319;SDS011;60269;52.502;16.732;2023-09-08T20:00:45;10.88;;;5.40;;
72319;SDS011;60269;52.502;16.732;2023-09-08T20:04:19;8.88;;;4.13;;
72319;SDS011;60269;52.502;16.732;2023-09-08T20:07:51;10.80;;;4.60;;
72319;SDS011;60269;52.502;16.732;2023-09-08T20:11:23;10.00;;;5.25;;
72319;SDS011;60269;52.502;16.732;2023-09-08T20:14:56;12.45;;;5.40;;
72319;SDS011;60269;52.502;16.732;2023-09-08T20:18:28;12.75;;;5.13;;
72319;SDS011;60269;52.502;16.732;2023-09-08T20:22:00;10.00;;;5.17;;
72319;SDS011;60269;52.502;16.732;2023-09-08T20:25:33;10.05;;;4.60;;
72319;SDS011;60269;52.502;16.732;2023-09-08T20:29:05;8.45;;;4.65;;
72319;SDS011;60269;52.502;16.732;2023-09-08T20:32:37;11.35;;;5.10;;
72319;SDS011;60269;52.502;16.732;2023-09-08T20:36:09;12.03;;;5.47;;
72319;SDS011;60269;52.502;16.732;2023-09-08T20:39:41;11.98;;;5.55;;
72319;SDS011;60269;52.502;16.732;2023-09-08T20:43:14;12.50;;;5.40;;
72319;SDS011;60269;52.502;16.732;2023-09-08T20:46:46;15.07;;;5.68;;
72319;SDS011;60269;52.502;16.732;2023-09-08T20:50:19;13.03;;;6.03;;
72319;SDS011;60269;52.502;16.732;2023-09-08T20:53:50;10.80;;;5.18;;
72319;SDS011;60269;52.502;16.732;2023-09-08T20:57:23;11.75;;;6.07;;
72319;SDS011;60269;52.502;16.732;2023-09-08T21:00:57;12.80;;;6.18;;
72319;SDS011;60269;52.502;16.732;2023-09-08T21:04:30;10.50;;;5.90;;